CST,Max TemperatureF,Mean TemperatureF,Min TemperatureF,Max Dew PointF,MeanDew PointF,Min DewpointF,Max Humidity, Mean Humidity, Min Humidity, Max Sea Level PressureIn, Mean Sea Level PressureIn, Min Sea Level PressureIn, Max VisibilityMiles, Mean VisibilityMiles, Min VisibilityMiles, Max Wind SpeedMPH, Mean Wind SpeedMPH, Max Gust SpeedMPH,PrecipitationIn, CloudCover, Events, WindDirDegrees
2012-1-1,35,27,19,32,17,9,93,69,58,30.33,30.07,29.75,10,10,4,30,19,46,0.00,7,Snow,308
2012-1-2,21,16,10,11,6,4,80,65,54,30.54,30.46,30.32,10,10,9,23,16,33,0.00,2,,311
2012-1-3,27,18,9,19,12,4,84,73,60,30.47,30.11,29.89,10,10,10,17,7,23,0.00,0,,191
2012-1-4,37,30,23,27,23,19,92,79,67,30.12,30.03,29.92,10,10,10,14,8,21,0.00,0,,250
2012-1-5,45,36,27,34,29,24,92,79,65,29.97,29.76,29.63,10,10,10,10,5,,0.00,0,,225
2012-1-6,46,42,37,30,28,23,70,59,47,29.88,29.76,29.62,10,10,10,17,9,23,0.00,3,,281
2012-1-7,37,31,25,28,23,19,88,72,59,30.23,30.10,29.89,10,10,10,16,10,24,0.00,4,,281
2012-1-8,39,30,21,27,24,18,92,78,57,30.32,30.22,30.08,10,9,7,13,5,,0.00,0,,218
2012-1-9,48,42,35,28,26,23,73,61,43,30.05,29.95,29.89,10,10,10,16,11,23,0.00,0,,246
2012-1-10,53,40,27,34,30,23,89,71,48,29.97,29.81,29.63,10,10,10,13,4,,0.00,0,,218
2012-1-11,39,27,14,34,23,5,92,80,64,29.89,29.74,29.60,10,8,1,25,10,32,0.00,6,Snow,316
2012-1-12,15,12,10,7,3,1,73,68,64,29.92,29.87,29.82,10,9,6,18,15,26,0.00,8,Snow,332
2012-1-13,12,9,6,6,4,1,80,75,67,30.05,30.01,29.92,10,8,2,13,7,,0.00,7,Snow,301
2012-1-14,23,15,7,18,12,3,86,79,68,30.13,30.06,30.00,10,7,1,8,4,,0.00,8,Snow,117
2012-1-15,43,31,19,26,21,18,93,79,45,30.13,29.94,29.72,10,7,2,20,7,26,0.00,2,,131
2012-1-16,30,26,19,25,17,9,89,68,50,30.00,29.84,29.71,10,10,9,15,7,23,0.00,1,,357
2012-1-17,18,10,3,9,3,-3,81,68,43,30.33,30.15,29.99,10,8,2,18,13,23,0.00,5,Snow,322
2012-1-18,26,14,0,19,4,-12,83,69,55,30.27,29.89,29.67,10,9,2,26,11,33,0.00,3,Snow,230
2012-1-19,3,-3,-9,-12,-17,-20,65,55,39,30.26,30.18,30.04,10,10,10,18,10,26,0.00,0,,289
2012-1-20,10,5,0,3,-1,-10,84,73,55,30.30,30.19,30.11,10,5,1,7,3,,0.05,7,Snow,104
2012-1-21,23,10,-2,18,5,-7,87,77,62,30.29,30.10,29.81,10,9,7,20,7,24,0.00,4,,152
2012-1-22,27,23,19,25,20,16,93,88,78,29.78,29.63,29.51,10,4,1,18,12,25,0.00,8,,108
2012-1-23,27,24,21,25,20,15,93,83,78,29.95,29.66,29.47,10,5,1,18,11,26,0.01,8,Snow,307
2012-1-24,24,20,15,20,17,12,88,84,78,30.32,30.22,29.97,10,8,5,15,6,21,0.00,8,,262
2012-1-25,33,28,24,30,24,21,91,84,75,30.31,30.11,29.84,9,5,2,15,8,22,0.01,7,Snow,170
2012-1-26,39,32,25,29,25,18,89,76,65,29.83,29.76,29.67,10,8,4,17,9,25,0.00,2,,256
2012-1-27,35,27,19,33,25,15,93,81,56,29.96,29.79,29.69,10,6,0,21,9,31,0.01,5,Fog-Snow,237
2012-1-28,28,23,18,20,15,10,88,72,55,30.03,29.97,29.93,10,7,1,18,8,25,0.02,4,Snow,283
2012-1-29,23,16,10,19,9,4,86,70,56,30.22,30.12,29.95,10,9,2,12,7,,0.01,3,Snow,295
2012-1-30,45,33,21,31,24,14,82,70,53,29.93,29.72,29.62,10,10,10,13,8,,0.00,2,,145
2012-1-31,45,38,32,34,30,28,88,77,62,30.00,29.74,29.54,10,10,7,18,8,24,0.00,4,,271